createdAt,value
2022-09-28T01:12:23.958Z,1.80
2022-09-28T01:15:15.001Z,1.98
2022-09-28T01:18:14.476Z,1.90
2022-09-28T01:21:07.695Z,2.05
2022-09-28T01:24:15.682Z,2.00
2022-09-28T01:27:15.355Z,2.13
2022-09-28T01:30:07.797Z,2.00
2022-09-28T01:33:05.067Z,1.58
2022-09-28T01:35:57.740Z,1.90
2022-09-28T01:38:50.286Z,2.20
2022-09-28T01:41:44.043Z,2.20
2022-09-28T01:44:40.781Z,1.77
2022-09-28T01:47:36.138Z,2.42
2022-09-28T01:50:27.965Z,2.10
2022-09-28T01:53:23.187Z,2.53
2022-09-28T01:56:17.321Z,2.47
2022-09-28T01:59:12.517Z,2.40
2022-09-28T02:02:08.702Z,2.20
2022-09-28T02:05:01.840Z,2.30
2022-09-28T02:07:56.094Z,2.45
2022-09-28T02:10:49.191Z,2.22
2022-09-28T02:13:42.361Z,2.45
2022-09-28T02:16:36.483Z,2.60
2022-09-28T02:19:29.283Z,2.45
2022-09-28T02:22:26.555Z,2.20
2022-09-28T02:25:22.747Z,2.03
2022-09-28T02:28:14.908Z,2.45
2022-09-28T02:31:03.582Z,2.60
2022-09-28T02:33:54.991Z,2.00
2022-09-28T02:36:47.345Z,1.92
2022-09-28T02:39:36.659Z,2.35
2022-09-28T02:42:29.796Z,2.20
2022-09-28T02:45:31.455Z,2.95
2022-09-28T02:48:43.533Z,2.47
2022-09-28T02:51:42.633Z,2.35
2022-09-28T02:55:07.256Z,2.08
2022-09-28T02:58:13.878Z,2.47
2022-09-28T03:01:13.587Z,2.30
2022-09-28T03:04:10.540Z,2.47
2022-09-28T03:07:08.042Z,2.40
2022-09-28T03:10:04.734Z,2.88
2022-09-28T03:12:56.287Z,2.50
2022-09-28T03:15:48.763Z,2.60
2022-09-28T03:18:38.440Z,2.92
2022-09-28T03:21:27.397Z,2.72
2022-09-28T03:24:16.627Z,3.08
2022-09-28T03:27:07.257Z,2.83
2022-09-28T03:29:56.812Z,3.38
2022-09-28T03:32:45.599Z,3.20
2022-09-28T03:35:34.216Z,3.10
2022-09-28T03:38:23.358Z,3.13
2022-09-28T03:41:12.377Z,2.78
2022-09-28T03:44:03.343Z,2.92
2022-09-28T03:46:52.506Z,3.78
2022-09-28T03:49:41.505Z,2.97
2022-09-28T03:52:30.238Z,2.63
2022-09-28T03:55:19.245Z,3.15
2022-09-28T03:58:08.659Z,2.65
2022-09-28T04:01:04.513Z,3.05
2022-09-28T04:03:56.305Z,2.83
2022-09-28T04:06:45.660Z,2.88
2022-09-28T04:09:34.746Z,2.97
2022-09-28T04:12:23.840Z,3.28
2022-09-28T04:15:13.054Z,2.75
2022-09-28T04:18:03.861Z,3.08
2022-09-28T04:21:03.702Z,3.65
2022-09-28T04:23:53.918Z,3.05
2022-09-28T04:26:42.611Z,3.28
2022-09-28T04:29:31.435Z,3.25
2022-09-28T04:32:21.806Z,3.75
2022-09-28T04:35:13.480Z,3.35
2022-09-28T04:38:02.748Z,3.70
2022-09-28T04:40:51.700Z,3.80
2022-09-28T04:43:41.217Z,3.90
2022-09-28T04:46:30.937Z,4.28
2022-09-28T04:49:20.143Z,4.55
2022-09-28T04:52:17.167Z,4.13
2022-09-28T04:55:07.827Z,4.32
2022-09-28T04:57:56.482Z,4.53
2022-09-28T05:00:46.334Z,5.05
2022-09-28T05:03:35.915Z,5.28
2022-09-28T05:06:28.288Z,5.07
2022-09-28T05:09:19.069Z,5.15
2022-09-28T05:12:09.754Z,4.38
2022-09-28T05:14:58.732Z,4.55
2022-09-28T05:17:47.735Z,4.30
2022-09-28T05:20:41.718Z,5.10
2022-09-28T05:23:30.870Z,4.25
2022-09-28T05:26:21.806Z,4.30
2022-09-28T05:29:11.185Z,4.22
2022-09-28T05:32:01.676Z,4.47
2022-09-28T05:34:51.205Z,3.63
2022-09-28T05:37:41.362Z,4.82
2022-09-28T05:40:30.304Z,3.92
2022-09-28T05:43:21.689Z,4.13
2022-09-28T05:46:11.054Z,3.38
2022-09-28T05:49:01.698Z,3.40
2022-09-28T05:51:50.797Z,3.60
2022-09-28T05:54:39.993Z,3.50
2022-09-28T05:57:29.518Z,4.55
2022-09-28T06:00:20.904Z,3.63
2022-09-28T06:03:13.131Z,3.83
2022-09-28T06:06:03.012Z,3.70
2022-09-28T06:08:52.339Z,3.33
2022-09-28T06:11:41.351Z,3.17
2022-09-28T06:14:30.065Z,3.33
2022-09-28T06:17:20.669Z,3.45
2022-09-28T06:20:10.996Z,3.90
2022-09-28T06:22:59.909Z,3.30
2022-09-28T06:25:49.438Z,3.88
2022-09-28T06:28:38.819Z,3.45
2022-09-28T06:31:31.613Z,4.00
2022-09-28T06:34:22.095Z,3.25
2022-09-28T06:37:12.653Z,3.72
2022-09-28T06:40:01.657Z,4.25
2022-09-28T06:42:57.372Z,3.97
2022-09-28T06:45:52.055Z,4.55
2022-09-28T06:48:41.151Z,4.47
2022-09-28T06:51:31.850Z,4.68
2022-09-28T06:54:23.045Z,4.22
2022-09-28T06:57:12.451Z,5.05
2022-09-28T07:00:01.822Z,4.68
2022-09-28T07:02:50.841Z,4.13
2022-09-28T07:05:44.023Z,4.65
2022-09-28T07:08:34.727Z,5.10
2022-09-28T07:11:26.931Z,4.78
2022-09-28T07:14:31.311Z,5.07
2022-09-28T07:17:25.285Z,4.00
2022-09-28T07:20:19.127Z,5.03
2022-09-28T07:23:18.463Z,4.57
2022-09-28T07:26:09.652Z,4.80
2022-09-28T07:28:58.982Z,6.20
2022-09-28T07:31:47.631Z,4.47
2022-09-28T07:34:43.731Z,5.03
2022-09-28T07:37:33.261Z,4.95
2022-09-28T07:40:39.381Z,4.57
2022-09-28T07:43:30.300Z,4.65
2022-09-28T07:46:19.282Z,4.40
2022-09-28T07:49:11.555Z,6.13
2022-09-28T07:52:01.691Z,5.68
2022-09-28T07:54:52.322Z,5.30
2022-09-28T07:57:41.894Z,5.07
2022-09-28T08:00:34.378Z,4.93
2022-09-28T08:03:23.904Z,4.43
2022-09-28T08:06:14.943Z,4.90
2022-09-28T08:09:03.737Z,4.32
2022-09-28T08:11:53.219Z,5.07
2022-09-28T08:14:42.859Z,5.80
2022-09-28T08:17:33.432Z,4.85
2022-09-28T08:20:39.408Z,5.35
2022-09-28T08:23:28.711Z,5.53
2022-09-28T08:26:18.195Z,5.03
2022-09-28T08:29:08.395Z,6.25
2022-09-28T08:32:01.260Z,4.30
2022-09-28T08:34:52.513Z,5.18
2022-09-28T08:37:44.670Z,5.00
2022-09-28T08:40:48.480Z,4.03
2022-09-28T08:44:10.393Z,4.82
2022-09-28T08:47:03.417Z,4.55
2022-09-28T08:52:49.420Z,4.93
2022-09-28T08:55:41.302Z,5.43
2022-09-28T08:58:37.392Z,4.15
2022-09-28T09:01:29.571Z,4.40
2022-09-28T09:04:19.445Z,4.38
2022-09-28T09:07:29.612Z,4.47
2022-09-28T09:10:33.901Z,4.00
2022-09-28T09:13:49.919Z,3.33
2022-09-28T09:16:59.939Z,4.05
2022-09-28T09:19:55.537Z,4.28
2022-09-28T09:22:58.203Z,4.85
2022-09-28T09:25:51.302Z,4.65
2022-09-28T09:29:04.037Z,5.13
2022-09-28T09:32:06.792Z,4.15
2022-09-28T09:35:21.071Z,5.72
2022-09-28T09:38:42.883Z,5.18
2022-09-28T09:41:44.775Z,4.65
2022-09-28T09:45:05.395Z,3.60
2022-09-28T09:48:00.448Z,3.70
2022-09-28T09:50:52.902Z,3.70
2022-09-28T09:53:48.372Z,3.47
2022-09-28T09:56:44.273Z,3.50
2022-09-28T09:59:37.098Z,3.25
2022-09-28T10:02:28.223Z,3.08
2022-09-28T10:05:22.674Z,3.22
2022-09-28T10:08:19.743Z,3.03
2022-09-28T10:11:15.540Z,3.05
2022-09-28T10:14:04.802Z,2.85
2022-09-28T10:16:56.176Z,3.38
2022-09-28T10:19:46.123Z,3.65
2022-09-28T10:22:36.058Z,3.40
2022-09-28T10:25:25.632Z,2.53
2022-09-28T10:28:21.226Z,3.83
2022-09-28T10:31:38.692Z,3.30
2022-09-28T10:34:31.189Z,2.60
2022-09-28T10:37:20.739Z,2.85
2022-09-28T10:40:38.376Z,2.75
2022-09-28T10:43:34.431Z,2.97
2022-09-28T10:46:27.022Z,2.72
2022-09-28T10:49:21.655Z,2.90
2022-09-28T10:52:38.228Z,2.70
2022-09-28T10:55:33.316Z,2.67
2022-09-28T10:58:32.416Z,2.53
2022-09-28T11:01:28.524Z,2.20
2022-09-28T11:04:23.343Z,2.40
2022-09-28T11:07:19.534Z,2.35
2022-09-28T11:10:20.170Z,2.38
2022-09-28T11:13:11.129Z,2.65
2022-09-28T11:16:02.301Z,2.53
2022-09-28T12:17:32.505Z,1.02
2022-09-28T12:20:25.171Z,1.20
2022-09-28T12:23:19.270Z,1.20
2022-09-28T12:26:22.856Z,1.60
2022-09-28T12:29:15.574Z,1.08
2022-09-28T12:32:14.067Z,1.40
2022-09-28T12:35:04.594Z,1.63
2022-09-28T12:38:11.459Z,1.98
2022-09-28T12:41:09.845Z,1.67
2022-09-28T12:44:17.270Z,1.17
2022-09-28T12:47:26.717Z,0.82
2022-09-28T12:50:54.504Z,1.23
2022-09-28T12:54:03.317Z,1.83
2022-09-28T12:57:02.576Z,1.38
2022-09-28T13:00:01.404Z,2.17
2022-09-28T13:03:07.123Z,1.80
2022-09-28T13:06:46.500Z,1.88
2022-09-28T13:09:48.699Z,1.90
2022-09-28T13:12:48.891Z,1.30
2022-09-28T13:15:49.341Z,1.70
2022-09-28T13:18:45.802Z,1.70
2022-09-28T13:21:41.808Z,1.30
2022-09-28T13:24:35.921Z,1.73
2022-09-28T13:27:31.804Z,1.90
2022-09-28T13:30:21.000Z,1.83
2022-09-28T13:33:22.255Z,1.88
2022-09-28T13:36:39.333Z,1.80
2022-09-28T13:39:52.178Z,1.77
2022-09-28T13:43:19.386Z,1.90
2022-09-28T13:46:12.793Z,1.90
2022-09-28T13:49:12.403Z,1.73
2022-09-28T13:52:08.454Z,1.10
2022-09-28T13:55:15.561Z,1.20
2022-09-28T13:58:14.029Z,1.55
2022-09-28T14:01:11.252Z,1.35
2022-09-28T14:04:14.926Z,1.25
2022-09-28T14:07:16.851Z,1.50
2022-09-28T14:10:21.123Z,2.05
2022-09-28T14:13:10.709Z,1.50
2022-09-28T14:16:22.749Z,1.70
2022-09-28T14:19:18.687Z,2.00
2022-09-28T14:22:18.982Z,1.20
2022-09-28T14:25:15.660Z,1.50
2022-09-28T14:28:24.412Z,1.63
2022-09-28T14:31:25.445Z,0.95
2022-09-28T14:34:28.423Z,1.10
2022-09-28T14:37:39.418Z,1.83
2022-09-28T14:40:50.081Z,1.52
2022-09-28T14:43:55.056Z,1.45
2022-09-28T14:46:46.351Z,1.10
2022-09-28T14:50:02.020Z,1.35
2022-09-28T14:52:53.927Z,1.60
2022-09-28T14:55:52.721Z,1.10
2022-09-28T14:58:43.608Z,1.20
2022-09-28T15:01:32.674Z,1.52
2022-09-28T15:04:28.217Z,1.10
2022-09-28T15:07:21.440Z,1.50
2022-09-28T15:10:27.519Z,1.75
2022-09-28T15:13:23.586Z,1.20
2022-09-28T15:16:15.423Z,1.45
2022-09-28T15:19:15.892Z,1.10
2022-09-28T15:22:17.113Z,1.13
2022-09-28T15:25:14.701Z,0.93
2022-09-28T15:28:18.540Z,1.80
2022-09-28T15:31:07.756Z,1.45
2022-09-28T15:34:13.814Z,1.05
2022-09-28T15:37:09.234Z,1.00
2022-09-28T15:40:01.449Z,0.90
2022-09-28T15:42:50.317Z,0.85
2022-09-28T15:45:41.173Z,1.40
2022-09-28T15:48:33.033Z,1.13
2022-09-28T15:51:22.718Z,0.95
2022-09-28T15:54:19.858Z,1.55
2022-09-28T15:57:32.995Z,1.10
2022-09-28T16:00:28.483Z,1.08
2022-09-28T16:03:24.055Z,1.45
2022-09-28T16:06:13.749Z,1.05
2022-09-28T16:09:02.606Z,1.30
2022-09-28T16:11:53.220Z,1.02
2022-09-28T16:14:44.599Z,0.82
2022-09-28T16:17:36.560Z,1.35
2022-09-28T16:20:33.959Z,1.20
2022-09-28T16:23:27.368Z,1.52
2022-09-28T16:26:29.786Z,1.13
2022-09-28T16:29:29.635Z,1.17
2022-09-28T16:32:42.693Z,1.63
2022-09-28T16:35:34.525Z,1.30
2022-09-28T16:38:23.843Z,1.30
2022-09-28T16:41:14.425Z,1.98
2022-09-28T16:44:06.723Z,1.88
2022-09-28T16:46:57.187Z,1.70
2022-09-28T16:49:48.670Z,1.60
2022-09-28T16:52:59.288Z,1.45
2022-09-28T16:55:50.309Z,1.50
2022-09-28T16:58:39.954Z,1.60
2022-09-28T17:01:29.783Z,2.30
2022-09-28T17:04:19.306Z,2.88
2022-09-28T17:07:12.242Z,2.08
2022-09-28T17:10:01.692Z,1.98
2022-09-28T17:12:50.821Z,2.05
2022-09-28T17:15:40.211Z,1.50
2022-09-28T17:18:32.258Z,1.92
2022-09-28T17:21:22.460Z,1.90
2022-09-28T17:24:13.684Z,2.03
2022-09-28T17:27:03.645Z,1.92
2022-09-28T17:29:55.047Z,2.22
2022-09-28T17:32:45.728Z,1.95
2022-09-28T17:35:39.427Z,2.25
2022-09-28T17:38:30.844Z,1.58
2022-09-28T17:41:24.304Z,2.17
2022-09-28T17:44:16.395Z,1.77
2022-09-28T17:47:11.189Z,2.40
2022-09-28T17:50:00.500Z,2.00
2022-09-28T17:52:52.860Z,2.03
2022-09-28T17:55:46.976Z,1.83
2022-09-28T17:58:41.974Z,1.80
2022-09-28T18:01:36.726Z,1.67
2022-09-28T18:04:50.925Z,1.85
2022-09-28T18:07:45.377Z,1.73
2022-09-28T18:10:38.270Z,2.20
2022-09-28T18:13:27.681Z,2.28
2022-09-28T18:16:20.746Z,1.65
2022-09-28T18:19:09.850Z,1.95
2022-09-28T18:22:02.299Z,2.22
2022-09-28T18:24:51.486Z,1.95
2022-09-28T18:27:43.550Z,2.63
2022-09-28T18:30:33.792Z,1.92
2022-09-28T18:33:27.898Z,1.60
2022-09-28T18:36:19.018Z,1.65
2022-09-28T18:39:13.174Z,2.25
2022-09-28T18:42:07.773Z,2.35
2022-09-28T18:44:59.281Z,2.63
2022-09-28T18:47:51.269Z,2.17
2022-09-28T18:50:52.572Z,1.88
2022-09-28T18:53:42.078Z,2.28
2022-09-28T18:56:33.831Z,2.33
2022-09-28T18:59:24.885Z,2.17
2022-09-28T19:02:19.430Z,2.33
2022-09-28T19:05:12.250Z,2.78
2022-09-28T19:08:03.701Z,2.75
2022-09-28T19:10:54.406Z,1.88
2022-09-28T19:13:49.147Z,2.03
2022-09-28T19:16:46.026Z,2.45
2022-09-28T19:19:36.973Z,2.67
2022-09-28T19:22:27.375Z,2.90
2022-09-28T19:25:19.930Z,2.30
2022-09-28T19:28:10.240Z,2.30
2022-09-28T19:33:54.185Z,2.83
2022-09-28T19:36:45.247Z,2.15
2022-09-28T19:39:40.706Z,2.20
2022-09-28T19:42:35.691Z,2.22
2022-09-28T19:45:31.095Z,2.65
2022-09-28T19:48:26.224Z,2.70
2022-09-28T19:51:19.862Z,3.03
2022-09-28T19:54:14.476Z,2.53
2022-09-28T19:57:08.891Z,2.38
2022-09-28T20:00:04.478Z,2.70
2022-09-28T20:03:01.608Z,2.78
2022-09-28T20:05:57.756Z,2.20
2022-09-28T20:08:51.538Z,2.30
2022-09-28T20:11:45.357Z,2.53
2022-09-28T20:14:38.223Z,2.95
2022-09-28T20:17:39.345Z,2.95
2022-09-28T20:20:31.972Z,2.33
2022-09-28T20:23:25.442Z,2.38
2022-09-28T20:26:20.094Z,3.05
2022-09-28T20:29:12.429Z,2.67
2022-09-28T20:32:06.240Z,2.60
2022-09-28T20:35:03.510Z,3.17
2022-09-28T20:37:59.540Z,2.80
2022-09-28T20:40:50.295Z,2.45
2022-09-28T20:43:43.821Z,3.17
2022-09-28T20:46:34.918Z,2.97
2022-09-28T20:49:31.013Z,3.20
2022-09-28T20:52:23.528Z,2.83
2022-09-28T20:55:15.213Z,4.07
2022-09-28T20:58:06.963Z,3.63
2022-09-28T21:01:10.559Z,3.35
2022-09-28T21:04:01.374Z,3.72
2022-09-28T21:06:52.359Z,3.40
2022-09-28T21:09:47.121Z,3.55
2022-09-28T21:12:39.140Z,3.75
2022-09-28T21:15:35.100Z,3.55
2022-09-28T21:18:29.609Z,3.30
2022-09-28T21:21:26.794Z,2.92
2022-09-28T21:24:18.838Z,3.13
2022-09-28T21:27:15.454Z,3.03
2022-09-28T21:30:07.642Z,3.30
2022-09-28T21:33:01.416Z,3.17
2022-09-28T21:35:50.490Z,3.40
2022-09-28T21:38:40.893Z,3.47
2022-09-28T21:41:31.547Z,3.08
2022-09-28T21:44:23.531Z,3.80
2022-09-28T21:47:15.777Z,3.75
2022-09-28T21:50:05.414Z,3.88
2022-09-28T21:52:55.996Z,2.83
2022-09-28T21:55:46.752Z,3.33
2022-09-28T21:58:37.508Z,4.38
2022-09-28T22:01:29.364Z,3.97
2022-09-28T22:04:18.575Z,3.75
2022-09-28T22:07:07.839Z,4.15
2022-09-28T22:09:57.111Z,3.88
2022-09-28T22:12:46.010Z,3.65
2022-09-28T22:15:35.333Z,3.65
2022-09-28T22:18:26.275Z,4.07
2022-09-28T22:21:16.958Z,3.80
2022-09-28T22:24:08.652Z,4.30
2022-09-28T22:26:57.445Z,4.22
2022-09-28T22:29:46.993Z,3.97
2022-09-28T22:32:37.044Z,4.38
2022-09-28T22:35:27.396Z,4.18
2022-09-28T22:38:16.373Z,3.47
2022-09-28T22:41:05.424Z,4.38
2022-09-28T22:43:56.368Z,3.80
2022-09-28T22:46:45.543Z,3.47
2022-09-28T22:49:35.171Z,4.78
2022-09-28T22:52:25.919Z,4.70
2022-09-28T22:55:15.382Z,4.22
2022-09-28T22:58:04.297Z,4.10
2022-09-28T23:00:53.309Z,3.83
2022-09-28T23:03:43.062Z,4.40
2022-09-28T23:06:33.338Z,3.53
2022-09-28T23:09:23.841Z,3.47
2022-09-28T23:12:12.431Z,3.90
2022-09-28T23:15:01.423Z,4.00
2022-09-28T23:17:52.426Z,4.03
2022-09-28T23:20:41.652Z,4.15
2022-09-28T23:23:31.189Z,4.30
2022-09-28T23:26:23.584Z,3.83
2022-09-28T23:29:12.899Z,3.78
2022-09-28T23:32:02.232Z,4.03
2022-09-28T23:34:51.426Z,4.32
2022-09-28T23:37:40.428Z,4.18
2022-09-28T23:40:29.322Z,3.58
2022-09-28T23:43:20.109Z,4.20
2022-09-28T23:46:09.228Z,4.28
2022-09-28T23:48:58.759Z,4.10
2022-09-28T23:51:48.134Z,3.78
2022-09-28T23:54:37.218Z,4.78
2022-09-28T23:57:26.410Z,4.30
